Time;durP1;ratioP1;P1;durP2;ratioP2;P2;SDS_P1;SDS_P2;PMS_P1;PMS_P2;Temp;Humidity;BMP_temperature;BMP_pressure;BME280_temperature;BME280_humidity;BME280_pressure;Samples;Min_cycle;Max_cycle;Signal;HPM_P1;HPM_P2
2022/06/10 00:02:15;;;;;;;7.13;6.43;;;14.20;99.90;;;;;;5071847;28;20431;-35
2022/06/10 00:04:41;;;;;;;8.30;7.50;;;14.20;99.90;;;;;;5071593;28;20200;-35
2022/06/10 00:07:07;;;;;;;8.23;7.17;;;14.20;99.90;;;;;;5069776;28;20195;-35
2022/06/10 00:09:33;;;;;;;10.57;7.20;;;14.10;99.90;;;;;;5071429;28;20253;-35
2022/06/10 00:11:58;;;;;;;8.20;6.57;;;14.10;99.90;;;;;;5071637;28;20486;-35
2022/06/10 00:14:24;;;;;;;7.47;6.43;;;14.10;99.90;;;;;;5071476;28;20435;-35
2022/06/10 00:16:50;;;;;;;7.97;7.17;;;14.10;99.90;;;;;;5070933;28;20575;-35
2022/06/10 00:19:16;;;;;;;8.10;6.63;;;14.10;99.90;;;;;;5071196;28;20458;-35
2022/06/10 00:21:41;;;;;;;10.83;5.90;;;14.10;99.90;;;;;;5066521;28;20201;-35
2022/06/10 00:24:07;;;;;;;7.87;6.60;;;14.10;99.90;;;;;;5071324;28;20945;-35
2022/06/10 00:26:34;;;;;;;8.10;5.83;;;14.00;99.90;;;;;;5070857;28;20196;-35
2022/06/10 00:29:01;;;;;;;6.50;5.90;;;14.00;99.90;;;;;;5070899;28;20434;-35
2022/06/10 00:31:27;;;;;;;9.63;6.10;;;14.00;99.90;;;;;;5071125;28;20520;-35
2022/06/10 00:33:53;;;;;;;6.23;5.63;;;14.00;99.90;;;;;;5070100;28;20427;-35
2022/06/10 00:36:20;;;;;;;6.10;5.50;;;13.90;99.90;;;;;;5071003;28;20801;-35
2022/06/10 00:38:46;;;;;;;5.83;5.23;;;13.80;99.90;;;;;;5070352;28;20427;-35
2022/06/10 00:41:13;;;;;;;7.20;5.07;;;13.80;99.90;;;;;;5071019;28;20431;-35
2022/06/10 00:43:39;;;;;;;6.17;5.60;;;13.80;99.90;;;;;;5070886;28;20435;-35
2022/06/10 00:46:23;;;;;;;6.00;5.40;;;13.90;99.90;;;;;;5070727;28;20508;-35
2022/06/10 00:48:52;;;;;;;5.87;5.30;;;13.80;99.90;;;;;;5069522;28;20428;-35
2022/06/10 00:51:24;;;;;;;6.07;5.43;;;13.80;99.90;;;;;;5070789;28;20431;-35
2022/06/10 00:53:56;;;;;;;6.23;5.10;;;13.70;99.90;;;;;;5070118;28;20473;-35
2022/06/10 00:56:24;;;;;;;7.00;4.87;;;13.60;99.90;;;;;;5068992;28;20526;-35
2022/06/10 00:58:53;;;;;;;10.63;5.70;;;13.60;99.90;;;;;;5058683;28;20419;-35
2022/06/10 01:01:20;;;;;;;6.87;5.33;;;13.80;99.90;;;;;;5070172;28;20426;-35
2022/06/10 01:03:47;;;;;;;7.20;5.13;;;13.70;99.90;;;;;;5069415;28;20431;-35
2022/06/10 01:06:12;;;;;;;8.13;5.57;;;13.60;99.90;;;;;;5070485;28;20759;-35
2022/06/10 01:08:41;;;;;;;10.40;5.20;;;13.50;99.90;;;;;;5069991;28;20476;-35
2022/06/10 01:11:27;;;;;;;5.83;5.30;;;13.50;99.90;;;;;;5070144;28;20644;-35
2022/06/10 01:13:56;;;;;;;5.83;5.33;;;13.40;99.90;;;;;;5070189;28;20435;-35
2022/06/10 01:17:00;;;;;;;5.93;4.90;;;13.40;99.90;;;;;;5070170;28;20419;-35
2022/06/10 01:19:56;;;;;;;5.43;4.93;;;13.30;99.90;;;;;;5065213;28;20484;-35
2022/06/10 01:22:47;;;;;;;5.47;4.97;;;13.30;99.90;;;;;;5065212;28;20412;-35
2022/06/10 01:25:22;;;;;;;6.53;5.93;;;13.30;99.90;;;;;;5070386;28;20444;-35
2022/06/10 01:27:50;;;;;;;5.30;4.90;;;13.30;99.90;;;;;;5069552;28;20431;-35
2022/06/10 01:30:28;;;;;;;8.60;5.43;;;13.30;99.90;;;;;;5070208;28;20806;-35
2022/06/10 01:33:14;;;;;;;6.90;6.20;;;13.20;99.90;;;;;;5070161;28;20466;-35
2022/06/10 01:35:54;;;;;;;10.40;6.00;;;13.10;99.90;;;;;;5058314;28;20439;-35
2022/06/10 01:38:24;;;;;;;9.33;6.70;;;13.00;99.90;;;;;;5069465;28;20459;-35
2022/06/10 01:41:09;;;;;;;8.27;6.40;;;13.10;99.90;;;;;;5069745;28;20423;-35
2022/06/10 01:43:56;;;;;;;7.90;5.80;;;13.10;99.90;;;;;;5070022;28;20485;-35
2022/06/10 01:46:25;;;;;;;12.57;6.40;;;13.20;99.90;;;;;;5069716;28;20427;-35
2022/06/10 01:48:53;;;;;;;8.97;6.47;;;13.20;99.90;;;;;;5069318;28;20431;-35
2022/06/10 01:51:50;;;;;;;6.23;5.70;;;13.20;99.90;;;;;;5069578;28;20423;-35
2022/06/10 01:54:42;;;;;;;8.43;6.67;;;13.20;99.90;;;;;;5065266;28;20431;-35
2022/06/10 01:57:15;;;;;;;6.50;5.90;;;13.10;99.90;;;;;;5061292;28;20436;-35
2022/06/10 01:59:51;;;;;;;7.97;7.17;;;13.10;99.90;;;;;;5065185;28;20415;-35
2022/06/10 02:02:26;;;;;;;7.73;6.80;;;13.20;99.90;;;;;;5069715;28;20454;-35
2022/06/10 02:04:57;;;;;;;7.80;7.00;;;13.30;99.90;;;;;;5069859;28;20929;-35
2022/06/10 02:07:30;;;;;;;9.20;7.70;;;13.30;99.90;;;;;;5069066;28;21023;-35
2022/06/10 02:10:09;;;;;;;8.20;6.90;;;13.30;99.90;;;;;;5069574;28;20509;-35
2022/06/10 02:12:42;;;;;;;7.00;6.37;;;13.30;99.90;;;;;;5069510;28;20789;-35
2022/06/10 02:15:24;;;;;;;9.10;6.00;;;13.30;99.90;;;;;;5068624;28;20510;-35
2022/06/10 02:18:06;;;;;;;7.70;7.00;;;13.30;99.90;;;;;;5068870;28;20415;-35
2022/06/10 02:20:34;;;;;;;7.30;6.70;;;13.20;99.90;;;;;;5065053;28;20459;-35
2022/06/10 02:23:04;;;;;;;7.10;6.40;;;13.20;99.90;;;;;;5069836;28;21066;-35
2022/06/10 02:25:51;;;;;;;7.83;7.00;;;13.10;99.90;;;;;;5069578;28;20420;-35
2022/06/10 02:28:32;;;;;;;7.13;6.50;;;13.10;99.90;;;;;;5068949;28;20491;-35
2022/06/10 02:31:26;;;;;;;7.07;6.37;;;13.10;99.90;;;;;;5069225;28;20427;-35
2022/06/10 02:33:51;;;;;;;6.77;6.17;;;13.20;99.90;;;;;;5069489;28;20777;-35
2022/06/10 02:36:40;;;;;;;9.57;6.33;;;13.00;99.90;;;;;;5069582;28;20411;-35
2022/06/10 02:39:21;;;;;;;8.30;6.53;;;12.90;99.90;;;;;;5069233;28;20177;-35
2022/06/10 02:41:54;;;;;;;7.73;6.93;;;12.70;99.90;;;;;;5069598;28;20820;-35
2022/06/10 02:44:49;;;;;;;7.67;6.80;;;12.70;99.90;;;;;;5068075;28;20408;-35
2022/06/10 02:47:23;;;;;;;10.53;7.50;;;12.70;99.90;;;;;;5063952;28;20419;-35
2022/06/10 02:49:49;;;;;;;6.77;6.13;;;12.70;99.90;;;;;;5069018;28;20419;-35
2022/06/10 02:52:17;;;;;;;8.73;7.33;;;12.80;99.90;;;;;;5069171;28;20477;-35
2022/06/10 02:54:43;;;;;;;7.10;6.50;;;12.90;99.90;;;;;;5067905;28;20261;-35
2022/06/10 02:57:15;;;;;;;11.30;6.40;;;12.90;99.90;;;;;;5061466;28;20547;-35
2022/06/10 03:02:34;;;;;;;7.13;6.43;;;12.80;99.90;;;;;;5072865;28;20465;-35
2022/06/10 03:05:24;;;;;;;6.83;6.23;;;12.70;99.90;;;;;;5071611;28;20439;-35
2022/06/10 03:08:29;;;;;;;10.83;7.13;;;12.70;99.90;;;;;;5070947;28;20426;-35
2022/06/10 03:11:24;;;;;;;8.57;6.70;;;12.80;99.90;;;;;;5072586;28;20419;-35
2022/06/10 03:14:11;;;;;;;8.57;7.60;;;12.80;99.90;;;;;;5072908;28;20778;-35
2022/06/10 03:16:49;;;;;;;6.83;6.23;;;12.90;99.90;;;;;;5072194;28;20449;-35
2022/06/10 03:19:59;;;;;;;8.50;7.80;;;12.90;99.90;;;;;;5072565;28;20421;-35
2022/06/10 03:23:00;;;;;;;8.40;7.60;;;12.90;99.90;;;;;;5057655;28;20458;-35
2022/06/10 03:25:37;;;;;;;7.93;7.13;;;13.00;99.90;;;;;;5072582;28;20411;-35
2022/06/10 03:28:12;;;;;;;8.73;7.13;;;13.00;99.90;;;;;;5071928;28;20419;-35
2022/06/10 03:31:03;;;;;;;10.17;7.50;;;13.00;99.90;;;;;;5072181;28;20431;-35
2022/06/10 03:33:40;;;;;;;8.40;7.70;;;13.10;99.90;;;;;;5071891;28;20490;-35
2022/06/10 03:36:12;;;;;;;8.23;7.53;;;13.10;99.90;;;;;;5072356;28;20423;-35
2022/06/10 03:38:41;;;;;;;10.40;6.97;;;13.10;99.90;;;;;;5071732;28;20899;-35
2022/06/10 03:41:08;;;;;;;7.67;6.83;;;13.10;99.90;;;;;;5072201;28;20427;-35
2022/06/10 03:43:37;;;;;;;7.93;7.13;;;13.10;99.90;;;;;;5072110;28;20435;-35
2022/06/10 03:46:08;;;;;;;9.10;7.37;;;13.10;99.90;;;;;;5070638;28;20447;-35
2022/06/10 03:48:38;;;;;;;10.47;7.20;;;13.10;99.90;;;;;;5071671;28;20432;-35
2022/06/10 03:51:07;;;;;;;9.43;7.67;;;13.10;99.90;;;;;;5072016;28;20462;-35
2022/06/10 03:53:32;;;;;;;8.90;8.00;;;13.10;99.90;;;;;;5070484;28;20490;-35
2022/06/10 03:55:58;;;;;;;10.60;7.37;;;13.10;99.90;;;;;;5070321;28;20451;-35
2022/06/10 03:58:24;;;;;;;8.13;6.47;;;13.20;99.90;;;;;;5057755;28;20481;-35
2022/06/10 04:00:49;;;;;;;7.30;6.70;;;13.20;99.90;;;;;;5070386;28;20189;-35
2022/06/10 04:03:15;;;;;;;7.80;6.97;;;13.30;99.90;;;;;;5071793;28;20191;-35
2022/06/10 04:05:41;;;;;;;10.47;7.47;;;13.30;99.90;;;;;;5071660;28;20185;-35
2022/06/10 04:08:07;;;;;;;7.43;6.40;;;13.30;99.90;;;;;;5070960;28;20194;-35
2022/06/10 04:10:33;;;;;;;8.40;7.03;;;13.30;99.90;;;;;;5071610;28;21055;-35
2022/06/10 04:12:59;;;;;;;9.73;6.93;;;13.30;99.90;;;;;;5071098;28;20521;-35
2022/06/10 04:15:27;;;;;;;11.40;7.00;;;13.30;99.90;;;;;;5071774;28;20423;-35
2022/06/10 04:17:55;;;;;;;8.77;6.93;;;13.40;99.90;;;;;;5070907;28;20185;-35
2022/06/10 04:20:34;;;;;;;7.37;6.60;;;13.50;99.90;;;;;;5068748;28;20776;-35
2022/06/10 04:23:01;;;;;;;7.37;6.20;;;13.50;99.90;;;;;;5045715;28;20794;-35
2022/06/10 04:25:27;;;;;;;8.77;7.07;;;13.50;99.90;;;;;;5071228;28;20421;-35
2022/06/10 04:27:53;;;;;;;10.37;6.40;;;13.60;99.90;;;;;;5070506;28;20426;-35
2022/06/10 04:30:22;;;;;;;7.57;6.27;;;13.60;99.90;;;;;;5071468;28;20423;-35
2022/06/10 04:32:48;;;;;;;7.00;6.30;;;13.60;99.90;;;;;;5071082;28;20508;-35
2022/06/10 04:35:14;;;;;;;8.50;7.17;;;13.70;99.90;;;;;;5071066;28;20502;-35
2022/06/10 04:37:40;;;;;;;13.27;7.20;;;13.70;99.90;;;;;;5069170;28;20534;-35
2022/06/10 04:40:07;;;;;;;8.00;6.70;;;13.70;99.90;;;;;;5070953;28;20189;-35
2022/06/10 04:42:32;;;;;;;6.90;6.30;;;13.80;99.90;;;;;;5069774;28;20427;-35
2022/06/10 04:44:58;;;;;;;7.20;6.37;;;13.80;99.90;;;;;;5046976;28;20440;-35
2022/06/10 04:47:24;;;;;;;7.73;6.63;;;13.90;99.90;;;;;;5050437;28;20667;-35
2022/06/10 04:49:49;;;;;;;8.03;6.63;;;13.90;99.90;;;;;;5053838;28;20185;-35
2022/06/10 04:52:15;;;;;;;7.03;6.23;;;14.00;99.90;;;;;;5056530;28;20677;-35
2022/06/10 04:54:41;;;;;;;8.10;7.30;;;14.00;99.90;;;;;;5063960;28;20803;-35
2022/06/10 04:57:07;;;;;;;6.90;6.17;;;14.10;99.90;;;;;;5062371;28;20211;-35
2022/06/10 04:59:32;;;;;;;7.17;6.07;;;14.20;99.90;;;;;;5064821;28;20185;-35
2022/06/10 05:01:58;;;;;;;9.20;6.30;;;14.30;99.90;;;;;;5070785;28;20480;-35
2022/06/10 05:04:24;;;;;;;6.67;5.33;;;14.40;99.90;;;;;;5052590;28;20189;-35
2022/06/10 05:06:50;;;;;;;10.13;6.27;;;14.60;99.90;;;;;;5069946;28;20233;-35
2022/06/10 05:09:15;;;;;;;13.50;5.67;;;14.60;99.90;;;;;;5070139;28;20197;-36
2022/06/10 05:11:41;;;;;;;5.30;4.80;;;14.70;99.90;;;;;;5070617;28;20543;-35
2022/06/10 05:14:07;;;;;;;8.00;5.37;;;14.90;99.90;;;;;;5070259;28;20636;-35
2022/06/10 05:16:32;;;;;;;6.60;4.73;;;15.00;99.90;;;;;;5060296;28;20193;-35
2022/06/10 05:18:58;;;;;;;5.70;5.10;;;15.20;99.90;;;;;;5050263;28;20415;-35
2022/06/10 05:21:24;;;;;;;8.03;6.13;;;15.30;99.90;;;;;;5051064;28;20235;-35
2022/06/10 05:23:50;;;;;;;6.70;4.87;;;15.40;99.90;;;;;;5048544;28;20190;-35
2022/06/10 05:26:16;;;;;;;9.17;5.80;;;15.40;99.90;;;;;;5046881;28;20675;-35
2022/06/10 05:28:42;;;;;;;8.03;5.07;;;15.60;99.90;;;;;;5047255;28;20217;-35
2022/06/10 05:31:08;;;;;;;10.37;4.87;;;15.60;99.90;;;;;;5055710;28;20476;-35
2022/06/10 05:36:18;;;;;;;9.40;4.90;;;15.90;99.90;;;;;;5046757;28;20583;-35
2022/06/10 05:38:44;;;;;;;7.93;4.73;;;16.10;99.90;;;;;;5063935;28;20419;-35
2022/06/10 05:43:55;;;;;;;4.87;4.20;;;16.40;99.90;;;;;;5069750;28;20423;-35
2022/06/10 05:46:21;;;;;;;7.33;4.43;;;16.50;99.90;;;;;;5068548;28;20438;-36
2022/06/10 05:48:47;;;;;;;7.40;4.57;;;16.70;99.90;;;;;;5068764;28;20208;-35
2022/06/10 05:51:12;;;;;;;7.27;5.07;;;16.90;99.90;;;;;;5069926;28;20429;-36
2022/06/10 05:53:38;;;;;;;4.63;3.90;;;17.10;99.90;;;;;;5068507;28;20221;-35
2022/06/10 05:56:04;;;;;;;5.67;4.00;;;17.10;99.90;;;;;;5068469;28;20204;-35
2022/06/10 05:58:30;;;;;;;6.30;3.80;;;17.20;99.90;;;;;;5055970;28;20185;-35
2022/06/10 06:00:56;;;;;;;4.60;3.40;;;17.10;99.90;;;;;;5069770;28;20492;-35
2022/06/10 06:03:23;;;;;;;6.20;3.90;;;17.10;99.90;;;;;;5069677;28;20427;-35
2022/06/10 06:05:49;;;;;;;5.43;4.20;;;17.10;99.90;;;;;;5069630;28;20888;-35
2022/06/10 06:08:16;;;;;;;8.20;3.90;;;17.10;99.90;;;;;;5069173;28;20525;-35
2022/06/10 06:10:41;;;;;;;5.07;3.73;;;16.90;99.90;;;;;;5059474;28;20447;-35
2022/06/10 06:13:07;;;;;;;5.80;3.37;;;16.80;99.90;;;;;;5048565;28;20842;-35
2022/06/10 06:15:33;;;;;;;6.87;3.70;;;16.80;99.90;;;;;;5049372;28;20208;-35
2022/06/10 06:17:59;;;;;;;7.40;4.03;;;16.90;99.90;;;;;;5053833;28;20551;-35
2022/06/10 06:20:25;;;;;;;6.67;3.70;;;16.80;99.90;;;;;;5066060;28;20247;-35
2022/06/10 06:22:50;;;;;;;6.73;4.23;;;16.70;99.90;;;;;;5068252;28;20434;-35
2022/06/10 06:25:19;;;;;;;4.60;2.93;;;16.70;99.90;;;;;;5069734;28;20812;-35
2022/06/10 06:27:46;;;;;;;8.93;3.90;;;16.70;99.90;;;;;;5067742;28;20189;-35
2022/06/10 06:30:31;;;;;;;5.60;3.17;;;16.60;99.90;;;;;;5069789;28;20487;-35
2022/06/10 06:32:58;;;;;;;3.60;2.97;;;16.60;99.90;;;;;;5071745;28;20474;-35
2022/06/10 06:35:24;;;;;;;7.90;3.33;;;16.50;99.90;;;;;;5073427;28;20430;-35
2022/06/10 06:37:49;;;;;;;7.23;3.40;;;16.50;99.90;;;;;;5072832;28;20419;-35
2022/06/10 06:40:15;;;;;;;6.13;3.50;;;16.50;99.90;;;;;;5073506;28;20218;-35
2022/06/10 06:42:41;;;;;;;8.33;3.50;;;16.50;99.90;;;;;;5073198;28;20212;-35
2022/06/10 06:45:08;;;;;;;5.67;3.10;;;16.50;99.90;;;;;;5073091;28;20193;-35
2022/06/10 06:47:34;;;;;;;5.77;3.40;;;16.50;99.90;;;;;;5072416;28;20203;-35
2022/06/10 06:50:00;;;;;;;5.90;2.87;;;16.50;99.90;;;;;;5062289;28;20444;-35
2022/06/10 06:52:25;;;;;;;6.80;3.23;;;16.50;99.90;;;;;;5054215;28;20682;-35
2022/06/10 06:54:51;;;;;;;7.20;3.93;;;16.50;99.90;;;;;;5051166;28;20455;-35
2022/06/10 06:57:18;;;;;;;3.80;3.40;;;16.60;99.90;;;;;;5051986;28;20652;-35
2022/06/10 06:59:44;;;;;;;7.43;4.00;;;16.50;99.90;;;;;;5051903;28;20212;-36
2022/06/10 07:02:10;;;;;;;10.20;4.13;;;16.50;99.90;;;;;;5052411;28;20558;-35
2022/06/10 07:04:37;;;;;;;3.90;3.30;;;16.50;99.90;;;;;;5049892;28;20428;-35
2022/06/10 07:07:03;;;;;;;6.47;3.47;;;16.40;99.90;;;;;;5052136;28;20427;-35
2022/06/10 07:09:29;;;;;;;5.53;3.90;;;16.50;99.90;;;;;;5052300;28;20434;-35
2022/06/10 07:11:55;;;;;;;8.73;3.70;;;16.50;99.90;;;;;;5054530;28;20472;-35
2022/06/10 07:14:22;;;;;;;4.27;3.00;;;16.40;99.90;;;;;;5052241;28;20530;-35
2022/06/10 07:16:52;;;;;;;8.93;4.50;;;16.50;99.90;;;;;;5051813;28;20450;-35
2022/06/10 07:19:19;;;;;;;8.07;3.33;;;16.60;99.90;;;;;;5052174;28;20420;-35
2022/06/10 07:21:45;;;;;;;6.87;3.17;;;16.60;99.90;;;;;;5052616;28;20438;-35
2022/06/10 07:24:11;;;;;;;7.73;3.43;;;16.70;99.90;;;;;;5059475;28;20436;-35
2022/06/10 07:26:37;;;;;;;5.70;3.10;;;16.70;99.90;;;;;;5051978;28;20439;-35
2022/06/10 07:29:04;;;;;;;5.93;3.33;;;16.80;99.90;;;;;;5069172;28;20616;-35
2022/06/10 07:31:30;;;;;;;7.23;3.10;;;16.70;99.90;;;;;;5072496;28;20427;-35
2022/06/10 07:33:57;;;;;;;7.40;3.50;;;16.60;99.90;;;;;;5072155;28;20470;-35
2022/06/10 07:36:23;;;;;;;5.83;3.00;;;16.60;99.90;;;;;;5072353;28;20193;-35
2022/06/10 07:38:49;;;;;;;6.57;3.37;;;16.70;99.90;;;;;;5071608;28;20481;-35
2022/06/10 07:43:59;;;;;;;5.50;3.00;;;16.70;99.90;;;;;;5071793;28;20196;-35
2022/06/10 07:46:25;;;;;;;7.43;2.63;;;16.80;99.90;;;;;;5072148;28;20431;-35
2022/06/10 07:48:51;;;;;;;5.63;2.90;;;16.80;99.90;;;;;;5071424;28;20526;-35
2022/06/10 07:51:18;;;;;;;5.47;2.37;;;16.90;99.90;;;;;;5063595;28;20425;-36
2022/06/10 07:53:44;;;;;;;11.37;3.20;;;16.90;99.90;;;;;;5053303;28;20217;-35
2022/06/10 07:56:13;;;;;;;5.27;2.73;;;16.90;99.90;;;;;;5051594;28;20803;-35
2022/06/10 07:58:39;;;;;;;4.30;2.43;;;17.00;99.90;;;;;;5045463;28;20454;-35
2022/06/10 08:01:05;;;;;;;8.30;3.10;;;17.00;99.90;;;;;;5071802;28;20765;-35
2022/06/10 08:03:31;;;;;;;4.37;2.80;;;17.00;99.90;;;;;;5071796;28;21060;-35
2022/06/10 08:05:58;;;;;;;3.63;2.40;;;17.10;99.90;;;;;;5071707;28;20458;-36
2022/06/10 08:08:24;;;;;;;5.30;3.00;;;17.10;99.90;;;;;;5070968;28;20434;-35
2022/06/10 08:10:51;;;;;;;6.70;2.33;;;17.10;99.90;;;;;;5071672;28;20423;-35
2022/06/10 08:13:17;;;;;;;4.40;2.50;;;17.20;99.90;;;;;;5056707;28;20213;-35
2022/06/10 08:15:44;;;;;;;5.03;2.33;;;17.30;99.90;;;;;;5051639;28;20425;-35
2022/06/10 08:18:13;;;;;;;5.03;2.57;;;17.30;99.90;;;;;;5051246;28;20412;-35
2022/06/10 08:23:27;;;;;;;4.67;2.40;;;17.40;99.90;;;;;;5071462;28;20423;-35
2022/06/10 08:25:55;;;;;;;3.70;2.30;;;17.60;99.90;;;;;;5071434;28;20474;-36
2022/06/10 08:28:22;;;;;;;7.20;2.73;;;17.70;99.90;;;;;;5070776;28;20444;-35
2022/06/10 08:30:47;;;;;;;4.77;2.43;;;17.90;99.90;;;;;;5069928;28;20476;-35
2022/06/10 08:33:14;;;;;;;5.63;1.93;;;18.00;99.90;;;;;;5071159;28;20463;-35
2022/06/10 08:35:40;;;;;;;5.47;2.10;;;18.20;99.90;;;;;;5070789;28;20185;-35
2022/06/10 08:38:10;;;;;;;4.70;2.50;;;18.30;99.90;;;;;;5069242;28;20434;-35
2022/06/10 08:40:52;;;;;;;5.17;1.97;;;18.50;99.90;;;;;;5048727;28;20884;-35
2022/06/10 08:43:39;;;;;;;4.77;2.50;;;18.60;99.90;;;;;;5057133;28;20420;-35
2022/06/10 08:46:12;;;;;;;6.20;2.30;;;18.80;99.90;;;;;;5057343;28;20432;-35
2022/06/10 08:48:37;;;;;;;5.40;2.10;;;19.00;99.90;;;;;;5066745;28;20427;-35
2022/06/10 08:51:09;;;;;;;3.30;1.97;;;19.10;99.90;;;;;;5052028;28;20985;-35
2022/06/10 08:53:55;;;;;;;9.07;2.47;;;19.10;99.90;;;;;;5053465;28;20227;-35
2022/06/10 08:56:26;;;;;;;6.10;2.60;;;19.30;99.90;;;;;;5058906;28;20486;-35
2022/06/10 08:59:10;;;;;;;5.33;2.47;;;19.40;99.90;;;;;;5058588;28;20427;-35
2022/06/10 09:02:02;;;;;;;5.20;1.83;;;19.60;99.90;;;;;;5070086;28;20430;-36
2022/06/10 09:04:54;;;;;;;8.73;2.83;;;19.80;99.90;;;;;;5065542;28;20429;-35
2022/06/10 09:07:38;;;;;;;4.80;2.07;;;19.80;99.90;;;;;;5069633;28;20423;-35
2022/06/10 09:10:07;;;;;;;4.63;2.07;;;19.80;99.90;;;;;;5070354;28;20433;-35
2022/06/10 09:13:46;;;;;;;5.90;2.67;;;19.90;99.90;;;;;;5067422;28;20478;-36
2022/06/10 09:16:25;;;;;;;6.33;2.30;;;20.10;99.90;;;;;;4987992;28;20431;-36
2022/06/10 09:19:11;;;;;;;4.47;2.10;;;20.30;99.90;;;;;;5039470;28;20428;-35
2022/06/10 09:21:51;;;;;;;3.40;1.67;;;20.40;99.90;;;;;;5054780;28;20470;-35
2022/06/10 09:24:25;;;;;;;4.67;1.90;;;20.50;99.90;;;;;;5067465;28;20427;-35
2022/06/10 09:27:12;;;;;;;2.97;1.90;;;20.50;99.90;;;;;;5069724;28;20514;-36
2022/06/10 09:29:38;;;;;;;5.50;2.07;;;20.50;99.90;;;;;;5069813;28;20794;-36
2022/06/10 09:32:07;;;;;;;6.17;2.10;;;20.40;99.90;;;;;;5055237;28;20915;-36
2022/06/10 09:34:49;;;;;;;4.60;1.93;;;20.50;99.90;;;;;;5056857;28;20496;-36
2022/06/10 09:37:29;;;;;;;4.47;1.83;;;20.50;99.90;;;;;;5048971;28;20436;-36
2022/06/10 09:43:16;;;;;;;4.83;2.40;;;20.70;99.90;;;;;;5049065;28;20428;-35
2022/06/10 09:45:56;;;;;;;5.17;2.43;;;20.80;99.90;;;;;;5050486;28;20416;-36
2022/06/10 09:48:33;;;;;;;4.07;2.73;;;20.90;99.90;;;;;;5063970;28;20465;-36
2022/06/10 09:51:11;;;;;;;4.30;2.40;;;20.90;99.90;;;;;;5075340;28;20510;-35
2022/06/10 09:53:51;;;;;;;5.10;2.17;;;20.80;99.90;;;;;;5054386;28;20477;-36
2022/06/10 09:56:48;;;;;;;5.13;2.30;;;20.60;99.90;;;;;;5068798;28;20443;-35
2022/06/10 09:59:37;;;;;;;5.60;2.77;;;20.50;99.90;;;;;;5061436;28;20434;-35
2022/06/10 10:02:09;;;;;;;3.87;2.47;;;20.20;99.90;;;;;;5061995;28;20491;-35
2022/06/10 10:04:45;;;;;;;5.13;2.17;;;20.10;99.90;;;;;;5048377;28;20455;-35
2022/06/10 10:07:40;;;;;;;5.70;2.40;;;19.90;99.90;;;;;;5061844;28;20481;-35
2022/06/10 10:10:44;;;;;;;6.17;2.57;;;20.00;99.90;;;;;;5073913;28;20431;-36
2022/06/10 10:13:29;;;;;;;4.90;1.97;;;19.90;99.90;;;;;;5073514;28;20863;-36
2022/06/10 10:16:25;;;;;;;7.00;2.00;;;19.90;99.90;;;;;;5064559;28;20421;-35
2022/06/10 10:19:08;;;;;;;3.83;2.33;;;20.00;99.90;;;;;;5050557;28;20910;-36
2022/06/10 10:21:41;;;;;;;4.20;2.17;;;20.10;99.90;;;;;;5061714;28;20423;-35
2022/06/10 10:24:18;;;;;;;2.30;1.90;;;20.20;99.90;;;;;;5065607;28;20420;-35
2022/06/10 10:26:45;;;;;;;3.60;2.00;;;20.30;99.90;;;;;;5052841;28;20507;-36
2022/06/10 10:29:19;;;;;;;5.17;2.43;;;20.30;99.90;;;;;;5070661;28;20492;-36
2022/06/10 10:32:00;;;;;;;3.10;2.10;;;20.40;99.90;;;;;;5073353;28;20434;-36
2022/06/10 10:34:31;;;;;;;4.87;2.10;;;20.40;99.90;;;;;;5068263;28;20427;-36
2022/06/10 10:37:00;;;;;;;6.20;2.40;;;20.40;99.90;;;;;;5072647;28;20427;-36
2022/06/10 10:39:35;;;;;;;7.53;2.43;;;20.30;99.90;;;;;;5073121;28;21055;-36
2022/06/10 10:42:06;;;;;;;4.80;2.37;;;20.30;99.90;;;;;;5058453;28;20446;-36
2022/06/10 10:44:32;;;;;;;6.03;2.40;;;20.10;99.90;;;;;;5053705;28;20581;-35
2022/06/10 10:47:09;;;;;;;4.93;3.20;;;20.00;99.90;;;;;;5069277;28;20494;-36
2022/06/10 10:49:38;;;;;;;3.53;2.47;;;19.90;99.90;;;;;;5072667;28;20184;-36
2022/06/10 10:52:28;;;;;;;6.40;2.97;;;19.90;99.90;;;;;;5054115;28;20921;-36
2022/06/10 10:55:07;;;;;;;5.50;2.60;;;20.00;99.90;;;;;;5053593;28;20439;-36
2022/06/10 10:57:39;;;;;;;4.80;3.43;;;20.00;99.90;;;;;;5060811;28;20436;-36
2022/06/10 11:00:27;;;;;;;10.90;3.07;;;20.10;99.90;;;;;;5071547;28;20427;-36
2022/06/10 11:02:56;;;;;;;4.80;3.37;;;20.10;99.90;;;;;;5072546;28;20423;-36
2022/06/10 11:05:37;;;;;;;5.77;3.80;;;20.20;99.90;;;;;;5054860;28;20438;-36
2022/06/10 11:08:17;;;;;;;5.87;3.87;;;20.30;99.90;;;;;;5071802;28;20431;-36
2022/06/10 11:11:14;;;;;;;4.83;3.63;;;20.40;99.90;;;;;;5055182;28;20837;-36
2022/06/10 11:13:52;;;;;;;4.47;3.50;;;20.50;99.90;;;;;;5041371;28;20508;-36
2022/06/10 11:16:42;;;;;;;4.00;3.20;;;20.60;99.90;;;;;;5071200;28;20515;-36
2022/06/10 11:19:23;;;;;;;4.83;4.00;;;20.90;99.90;;;;;;5070201;28;20909;-36
2022/06/10 11:21:54;;;;;;;8.17;3.50;;;21.10;99.90;;;;;;5067634;28;20427;-36
2022/06/10 11:24:26;;;;;;;5.77;3.50;;;21.20;99.90;;;;;;5071782;28;20824;-36
2022/06/10 11:26:58;;;;;;;3.47;2.40;;;21.20;99.90;;;;;;5070516;28;20788;-36
2022/06/10 11:29:26;;;;;;;3.97;3.20;;;21.30;99.90;;;;;;5054329;28;20438;-36
2022/06/10 11:31:57;;;;;;;5.23;3.77;;;21.30;99.90;;;;;;5071011;28;20892;-36
2022/06/10 11:34:37;;;;;;;6.53;3.07;;;21.20;99.90;;;;;;5067427;28;20423;-36
2022/06/10 11:37:21;;;;;;;4.23;3.30;;;21.30;99.90;;;;;;5070130;28;20430;-36
2022/06/10 11:39:56;;;;;;;6.07;2.97;;;21.40;99.90;;;;;;5072099;28;20438;-36
2022/06/10 11:42:28;;;;;;;3.70;3.20;;;21.40;99.90;;;;;;5059027;28;20435;-36
2022/06/10 11:45:08;;;;;;;4.43;3.43;;;21.40;99.90;;;;;;5050935;28;20468;-36
2022/06/10 11:47:58;;;;;;;6.40;3.40;;;21.40;99.90;;;;;;5061944;28;20438;-36
2022/06/10 11:50:27;;;;;;;6.13;2.80;;;21.20;99.90;;;;;;5058306;28;20424;-36
2022/06/10 11:53:12;;;;;;;14.23;7.93;;;21.20;99.90;;;;;;5033492;28;20471;-36
2022/06/10 11:55:42;;;;;;;11.37;7.40;;;21.20;99.90;;;;;;5058252;28;20798;-36
2022/06/10 12:01:31;;;;;;;2.70;1.90;;;21.40;99.90;;;;;;5070091;28;20431;-36
2022/06/10 12:04:13;;;;;;;36.47;32.73;;;21.60;99.90;;;;;;5070532;28;20431;-36
2022/06/10 12:06:54;;;;;;;64.07;53.50;;;21.70;99.90;;;;;;5071108;28;20457;-36
2022/06/10 12:09:45;;;;;;;6.90;4.60;;;21.80;99.90;;;;;;5071633;28;20423;-36
2022/06/10 12:12:23;;;;;;;5.33;2.87;;;21.90;99.90;;;;;;5070097;28;20455;-36
2022/06/10 12:14:55;;;;;;;6.23;2.00;;;21.90;99.90;;;;;;5053236;28;20439;-36
2022/06/10 12:17:31;;;;;;;2.93;2.00;;;21.80;99.90;;;;;;5070730;28;20937;-36
2022/06/10 12:20:19;;;;;;;4.67;2.43;;;21.80;99.90;;;;;;5071317;28;20426;-36
2022/06/10 12:22:45;;;;;;;4.03;1.90;;;21.90;99.90;;;;;;5068068;28;20431;-36
2022/06/10 12:25:24;;;;;;;3.40;1.70;;;21.90;99.90;;;;;;5062667;28;20443;-36
2022/06/10 12:28:04;;;;;;;3.20;1.53;;;21.80;99.90;;;;;;5043087;28;20247;-36
2022/06/10 12:30:43;;;;;;;3.83;1.70;;;21.90;99.90;;;;;;5016833;28;20434;-36
2022/06/10 12:33:24;;;;;;;2.43;1.80;;;21.90;99.90;;;;;;5061774;28;20463;-36
2022/06/10 12:35:52;;;;;;;2.47;1.57;;;21.90;99.90;;;;;;5045074;28;20519;-36
2022/06/10 12:38:26;;;;;;;5.27;2.00;;;22.00;99.90;;;;;;5049193;28;20455;-36
2022/06/10 12:41:16;;;;;;;2.13;1.43;;;22.00;99.90;;;;;;5052878;28;20431;-36
2022/06/10 12:43:46;;;;;;;5.20;2.10;;;22.10;99.90;;;;;;5062541;28;20469;-36
2022/06/10 12:46:30;;;;;;;3.33;1.77;;;22.10;99.90;;;;;;5049091;28;20436;-36
2022/06/10 12:48:55;;;;;;;2.60;1.83;;;22.00;99.90;;;;;;5055073;28;20442;-36
2022/06/10 12:51:43;;;;;;;4.20;1.80;;;22.00;99.90;;;;;;5070716;28;20431;-36
2022/06/10 12:54:44;;;;;;;4.57;1.90;;;22.00;99.90;;;;;;5069664;28;20296;-36
2022/06/10 12:57:30;;;;;;;1.67;1.57;;;21.90;99.90;;;;;;5041189;28;20445;-36
2022/06/10 13:00:24;;;;;;;4.30;1.73;;;21.90;99.90;;;;;;5068115;28;20523;-36
2022/06/10 13:02:56;;;;;;;5.07;2.07;;;21.80;99.90;;;;;;5070128;28;20427;-36
2022/06/10 13:05:41;;;;;;;2.87;1.87;;;21.80;99.90;;;;;;5070601;28;20465;-36
2022/06/10 13:08:34;;;;;;;3.27;1.87;;;21.90;99.90;;;;;;5068491;28;20439;-36
2022/06/10 13:11:04;;;;;;;3.00;1.70;;;21.90;99.90;;;;;;5070471;28;20504;-36
2022/06/10 13:13:30;;;;;;;3.90;2.00;;;21.90;99.90;;;;;;5070182;28;20503;-36
2022/06/10 13:16:25;;;;;;;3.63;1.90;;;22.00;99.90;;;;;;5060509;28;20432;-36
2022/06/10 13:18:56;;;;;;;3.27;1.83;;;22.00;99.90;;;;;;5068029;28;20488;-36
2022/06/10 13:21:31;;;;;;;4.50;1.90;;;22.00;99.90;;;;;;5065608;28;20424;-36
2022/06/10 13:23:59;;;;;;;3.10;1.80;;;22.00;99.90;;;;;;5070013;28;20433;-36
2022/06/10 13:26:30;;;;;;;5.80;2.20;;;22.10;99.90;;;;;;5070002;28;20854;-36
2022/06/10 13:29:25;;;;;;;2.70;1.93;;;22.10;99.90;;;;;;5069685;28;20431;-36
2022/06/10 13:31:52;;;;;;;3.43;1.93;;;22.20;99.90;;;;;;5065133;28;20514;-36
2022/06/10 13:34:30;;;;;;;4.63;2.40;;;22.20;99.90;;;;;;5067293;28;20458;-36
2022/06/10 13:36:59;;;;;;;3.40;2.17;;;22.30;99.90;;;;;;5069299;28;20431;-36
2022/06/10 13:39:29;;;;;;;4.13;2.47;;;22.30;99.90;;;;;;5069973;28;20427;-36